Time;durP1;ratioP1;P1;durP2;ratioP2;P2;SDS_P1;SDS_P2;PMS_P1;PMS_P2;Temp;Humidity;BMP_temperature;BMP_pressure;BME280_temperature;BME280_humidity;BME280_pressure;Samples;Min_cycle;Max_cycle;Signal;HPM_P1;HPM_P2
2024/01/22 00:01:50;;;;;;;63.50;60.70;;;6.10;99.90;;;;;;5033959;28;20478;-66
2024/01/22 00:04:16;;;;;;;67.77;65.27;;;6.30;99.90;;;;;;5028927;28;20464;-66
2024/01/22 00:06:43;;;;;;;68.60;66.00;;;6.50;99.90;;;;;;5022077;28;21040;-66
2024/01/22 00:09:11;;;;;;;64.80;62.40;;;6.40;99.90;;;;;;5022082;28;20452;-66
2024/01/22 00:11:38;;;;;;;64.23;61.87;;;6.40;99.90;;;;;;5022161;28;20459;-67
2024/01/22 00:14:05;;;;;;;61.93;59.53;;;6.50;99.90;;;;;;5026267;28;20451;-67
2024/01/22 00:16:31;;;;;;;62.83;60.50;;;6.60;99.90;;;;;;5033881;28;20452;-67
2024/01/22 00:18:58;;;;;;;56.30;54.10;;;6.60;99.90;;;;;;5025211;28;20992;-67
2024/01/22 00:21:25;;;;;;;52.43;50.03;;;6.60;99.90;;;;;;5033542;28;20458;-66
2024/01/22 00:23:51;;;;;;;44.10;42.40;;;6.70;99.90;;;;;;5033367;28;20476;-67
2024/01/22 00:26:19;;;;;;;43.40;41.60;;;6.70;99.90;;;;;;5033674;28;20452;-67
2024/01/22 00:28:46;;;;;;;44.83;42.60;;;6.70;99.90;;;;;;5033178;28;20460;-67
2024/01/22 00:31:13;;;;;;;40.57;38.87;;;6.50;99.90;;;;;;5033574;28;20837;-67
2024/01/22 00:33:40;;;;;;;36.30;34.80;;;6.50;99.90;;;;;;5033846;28;20494;-66
2024/01/22 00:36:07;;;;;;;43.10;41.10;;;6.60;99.90;;;;;;5033325;28;20842;-67
2024/01/22 00:38:34;;;;;;;44.13;42.43;;;6.70;99.90;;;;;;5032868;28;20892;-66
2024/01/22 00:41:00;;;;;;;38.50;36.80;;;6.60;99.90;;;;;;5033341;28;20482;-67
2024/01/22 00:43:28;;;;;;;47.83;45.83;;;6.50;99.90;;;;;;5033329;28;20479;-67
2024/01/22 00:45:55;;;;;;;41.80;40.20;;;6.70;99.90;;;;;;5022526;28;20459;-68
2024/01/22 00:48:22;;;;;;;41.90;40.30;;;6.70;99.90;;;;;;5027171;28;20846;-66
2024/01/22 00:50:49;;;;;;;43.80;42.10;;;6.60;99.90;;;;;;5033093;28;20552;-67
2024/01/22 00:53:16;;;;;;;40.97;39.17;;;6.60;99.90;;;;;;5033101;28;20483;-67
2024/01/22 00:55:42;;;;;;;44.13;42.47;;;6.60;99.90;;;;;;5032678;28;20489;-68
2024/01/22 00:58:09;;;;;;;42.70;41.00;;;6.80;99.90;;;;;;5020246;28;20456;-66
2024/01/22 01:00:37;;;;;;;39.60;37.90;;;6.90;99.90;;;;;;5020883;28;20451;-67
2024/01/22 01:03:04;;;;;;;46.30;44.40;;;6.90;99.90;;;;;;5016703;28;20877;-67
2024/01/22 01:05:31;;;;;;;42.53;40.80;;;6.90;99.90;;;;;;5032705;28;20482;-68
2024/01/22 01:07:58;;;;;;;46.13;44.20;;;6.90;99.90;;;;;;5021824;28;20484;-68
2024/01/22 01:10:25;;;;;;;40.70;39.10;;;6.90;99.90;;;;;;5019475;28;20452;-67
2024/01/22 01:12:52;;;;;;;39.50;38.00;;;7.00;99.90;;;;;;5033147;28;20483;-67
2024/01/22 01:15:20;;;;;;;36.80;34.80;;;7.10;99.90;;;;;;5027406;28;20452;-68
2024/01/22 01:17:48;;;;;;;35.53;33.83;;;7.10;99.90;;;;;;5013017;28;20543;-67
2024/01/22 01:20:15;;;;;;;35.43;33.60;;;7.20;99.90;;;;;;5020593;28;20457;-67
2024/01/22 01:22:42;;;;;;;27.23;25.73;;;7.20;99.90;;;;;;5013355;28;20468;-67
2024/01/22 01:25:09;;;;;;;28.40;27.20;;;7.00;99.90;;;;;;5032878;28;20452;-68
2024/01/22 01:27:36;;;;;;;33.57;32.00;;;7.00;99.90;;;;;;5024242;28;20486;-67
2024/01/22 01:30:04;;;;;;;32.10;30.80;;;7.00;99.90;;;;;;5015802;28;21056;-68
2024/01/22 01:32:31;;;;;;;30.20;28.80;;;7.10;99.90;;;;;;5023937;28;20482;-66
2024/01/22 01:34:59;;;;;;;29.00;27.70;;;7.20;99.90;;;;;;5032505;28;20458;-67
2024/01/22 01:37:25;;;;;;;30.20;28.90;;;7.30;99.90;;;;;;5026208;28;20449;-67
2024/01/22 01:39:52;;;;;;;29.97;28.77;;;7.30;99.90;;;;;;5029026;28;20460;-67
2024/01/22 01:42:19;;;;;;;23.87;22.80;;;7.40;99.90;;;;;;5017974;28;20483;-67
2024/01/22 01:44:50;;;;;;;20.77;19.83;;;7.50;99.90;;;;;;5024074;28;20448;-67
2024/01/22 01:47:17;;;;;;;20.00;19.03;;;7.60;99.90;;;;;;5026879;28;20557;-67
2024/01/22 01:49:45;;;;;;;18.53;17.70;;;7.60;99.90;;;;;;5020858;28;20456;-66
2024/01/22 01:52:14;;;;;;;17.07;16.17;;;7.70;99.90;;;;;;5023991;28;20472;-67
2024/01/22 01:54:43;;;;;;;15.57;14.77;;;7.70;99.90;;;;;;5032021;28;20471;-67
2024/01/22 01:57:11;;;;;;;15.30;14.50;;;7.70;99.90;;;;;;5023658;28;20455;-67
2024/01/22 01:59:40;;;;;;;15.07;14.17;;;7.80;99.90;;;;;;5023649;28;20462;-67
2024/01/22 02:02:06;;;;;;;15.30;14.50;;;7.90;99.90;;;;;;5024114;28;20983;-68
2024/01/22 02:04:33;;;;;;;13.13;12.00;;;7.80;99.90;;;;;;5024862;28;20476;-67
2024/01/22 02:07:00;;;;;;;14.37;13.40;;;7.80;99.90;;;;;;5031408;28;20483;-66
2024/01/22 02:09:47;;;;;;;13.27;12.37;;;7.60;99.90;;;;;;5030242;28;21006;-68
2024/01/22 02:12:14;;;;;;;11.47;10.77;;;7.50;99.90;;;;;;5024630;28;20482;-67
2024/01/22 02:14:40;;;;;;;11.70;11.00;;;7.60;99.90;;;;;;5038723;28;20452;-68
2024/01/22 02:17:07;;;;;;;14.53;13.73;;;7.50;99.90;;;;;;5038681;28;20456;-67
2024/01/22 02:19:34;;;;;;;13.77;12.87;;;7.40;99.90;;;;;;5022766;28;20507;-66
2024/01/22 02:22:01;;;;;;;12.33;11.57;;;7.40;99.90;;;;;;5029702;28;20848;-67
2024/01/22 02:24:29;;;;;;;14.90;14.00;;;7.40;99.90;;;;;;5038301;28;20558;-67
2024/01/22 02:26:56;;;;;;;14.60;13.70;;;7.40;99.90;;;;;;5038049;28;20464;-67
2024/01/22 02:29:23;;;;;;;14.60;13.80;;;7.50;99.90;;;;;;5030227;28;20455;-66
2024/01/22 02:31:52;;;;;;;13.23;12.53;;;7.60;99.90;;;;;;5038119;28;20555;-67
2024/01/22 02:34:19;;;;;;;15.80;14.87;;;7.60;99.90;;;;;;5038360;28;20902;-67
2024/01/22 02:36:46;;;;;;;13.73;12.93;;;7.70;99.90;;;;;;5038240;28;20482;-67
2024/01/22 02:39:13;;;;;;;13.70;12.90;;;7.70;99.90;;;;;;5033170;28;20456;-67
2024/01/22 02:41:42;;;;;;;12.77;11.93;;;7.80;99.90;;;;;;5034380;28;20959;-67
2024/01/22 02:44:09;;;;;;;11.40;10.70;;;7.70;99.90;;;;;;5038162;28;20452;-68
2024/01/22 02:46:35;;;;;;;12.50;11.90;;;7.80;99.90;;;;;;5029989;28;20452;-68
2024/01/22 02:49:02;;;;;;;14.27;13.47;;;7.80;99.90;;;;;;5029493;28;20490;-67
2024/01/22 02:51:29;;;;;;;13.43;12.73;;;7.90;99.90;;;;;;5029941;28;20455;-67
2024/01/22 02:53:56;;;;;;;13.13;12.23;;;8.10;99.90;;;;;;5029499;28;20487;-71
2024/01/22 02:56:24;;;;;;;10.70;10.10;;;8.10;99.90;;;;;;5030169;28;20471;-66
2024/01/22 02:58:52;;;;;;;11.27;10.43;;;8.00;99.90;;;;;;5036326;28;20459;-68
2024/01/22 03:01:19;;;;;;;10.57;9.60;;;8.00;99.90;;;;;;5031879;28;20479;-68
2024/01/22 03:03:46;;;;;;;10.60;9.63;;;8.00;99.90;;;;;;5029754;28;20476;-67
2024/01/22 03:06:13;;;;;;;11.80;10.80;;;7.90;99.90;;;;;;5037923;28;20463;-67
2024/01/22 03:08:39;;;;;;;11.30;10.30;;;8.00;99.90;;;;;;5037626;28;20479;-67
2024/01/22 03:11:07;;;;;;;10.90;10.10;;;8.00;99.90;;;;;;5029726;28;20455;-67
2024/01/22 03:13:34;;;;;;;12.20;11.30;;;8.00;99.90;;;;;;5030589;28;20867;-66
2024/01/22 03:16:02;;;;;;;10.23;8.20;;;8.10;99.90;;;;;;5034281;28;20837;-68
2024/01/22 03:18:29;;;;;;;10.20;9.20;;;8.00;99.90;;;;;;5032841;28;20455;-67
2024/01/22 03:20:55;;;;;;;10.37;9.67;;;7.90;99.90;;;;;;5031852;28;20452;-66
2024/01/22 03:23:22;;;;;;;10.83;10.23;;;7.80;99.90;;;;;;5029071;28;20486;-67
2024/01/22 03:25:49;;;;;;;14.13;13.10;;;7.70;99.90;;;;;;5026472;28;20625;-67
2024/01/22 03:28:16;;;;;;;16.90;16.00;;;7.70;99.90;;;;;;5034477;28;20487;-67
2024/01/22 03:30:42;;;;;;;20.47;19.37;;;7.70;99.90;;;;;;5034471;28;20459;-67
2024/01/22 03:33:10;;;;;;;28.60;27.00;;;7.70;99.90;;;;;;5034612;28;20476;-67
2024/01/22 03:35:37;;;;;;;22.80;21.07;;;7.90;99.90;;;;;;5018434;28;20460;-67
2024/01/22 03:38:04;;;;;;;25.07;23.67;;;7.90;99.90;;;;;;5009776;28;20944;-66
2024/01/22 03:40:31;;;;;;;41.47;39.87;;;8.00;99.90;;;;;;5034537;28;20466;-68
2024/01/22 03:42:58;;;;;;;33.90;32.50;;;8.20;99.90;;;;;;5026130;28;20488;-67
2024/01/22 03:45:24;;;;;;;60.67;58.47;;;8.30;99.90;;;;;;5034270;28;20463;-67
2024/01/22 03:47:51;;;;;;;37.97;36.37;;;8.50;99.90;;;;;;5033748;28;20491;-66
2024/01/22 03:50:19;;;;;;;33.07;31.73;;;8.40;99.90;;;;;;5025990;28;20762;-66
2024/01/22 03:52:46;;;;;;;169.70;164.40;;;8.50;99.90;;;;;;5025187;28;20644;-67
2024/01/22 03:55:13;;;;;;;70.17;67.30;;;8.60;99.90;;;;;;5027361;28;20452;-66
2024/01/22 03:57:40;;;;;;;163.97;158.93;;;8.30;99.90;;;;;;5033980;28;20811;-66
2024/01/22 04:00:08;;;;;;;189.80;184.17;;;8.20;99.90;;;;;;5030114;28;20464;-66
2024/01/22 04:02:35;;;;;;;139.13;134.80;;;8.10;99.90;;;;;;5029618;28;20472;-65
2024/01/22 04:05:02;;;;;;;401.43;389.83;;;8.20;99.90;;;;;;5034398;28;20452;-66
2024/01/22 04:07:30;;;;;;;316.97;308.00;;;8.20;99.90;;;;;;5019092;28;20459;-67
2024/01/22 04:09:56;;;;;;;410.87;398.13;;;8.30;99.90;;;;;;5024409;28;20452;-67
2024/01/22 04:12:23;;;;;;;513.73;495.67;;;8.40;99.90;;;;;;5033738;28;20472;-66
2024/01/22 04:14:50;;;;;;;503.60;487.13;;;8.50;99.90;;;;;;5032491;28;20447;-67
2024/01/22 04:17:17;;;;;;;501.87;485.23;;;8.50;99.90;;;;;;5027020;28;20451;-67
2024/01/22 04:19:44;;;;;;;506.67;490.37;;;8.50;99.90;;;;;;5033362;28;20459;-64
2024/01/22 04:22:10;;;;;;;504.03;487.57;;;8.30;99.90;;;;;;5025845;28;20468;-66
2024/01/22 04:24:39;;;;;;;532.37;514.00;;;8.40;99.90;;;;;;5033792;28;20448;-66
2024/01/22 04:27:05;;;;;;;538.13;519.87;;;8.40;99.90;;;;;;5029879;28;20453;-66
2024/01/22 04:29:34;;;;;;;591.50;569.10;;;8.40;99.90;;;;;;5021155;28;20481;-66
2024/01/22 04:32:01;;;;;;;546.70;528.23;;;8.40;99.90;;;;;;5029701;28;20474;-66
2024/01/22 04:34:28;;;;;;;573.73;552.90;;;8.40;99.90;;;;;;5028758;28;20478;-66
2024/01/22 04:36:55;;;;;;;543.80;524.80;;;8.40;99.90;;;;;;5033340;28;20510;-66
2024/01/22 04:39:23;;;;;;;555.33;535.13;;;8.40;99.90;;;;;;5033215;28;20458;-67
2024/01/22 04:41:52;;;;;;;572.73;552.67;;;8.40;99.90;;;;;;5033099;28;20482;-66
2024/01/22 04:44:19;;;;;;;632.17;606.10;;;8.40;99.90;;;;;;5024570;28;20483;-66
2024/01/22 04:46:46;;;;;;;576.43;556.30;;;8.60;99.90;;;;;;5025250;28;20452;-66
2024/01/22 04:49:13;;;;;;;587.67;566.40;;;8.40;99.90;;;;;;5032932;28;21172;-66
2024/01/22 04:51:42;;;;;;;601.10;579.40;;;8.40;99.90;;;;;;5032898;28;20548;-66
2024/01/22 04:54:09;;;;;;;595.50;573.83;;;8.40;99.90;;;;;;5032956;28;20853;-65
2024/01/22 04:56:40;;;;;;;633.40;608.37;;;8.50;99.90;;;;;;5032874;28;20461;-66
2024/01/22 04:59:08;;;;;;;718.73;681.77;;;8.40;99.90;;;;;;5029166;28;20457;-66
2024/01/22 05:01:35;;;;;;;706.83;671.17;;;8.60;99.90;;;;;;5021187;28;20528;-66
2024/01/22 05:04:02;;;;;;;703.87;668.17;;;8.70;99.90;;;;;;5024137;28;20477;-65
2024/01/22 05:06:29;;;;;;;690.07;654.77;;;8.80;99.90;;;;;;5032856;28;20463;-67
2024/01/22 05:08:56;;;;;;;679.37;646.40;;;8.90;99.90;;;;;;5032376;28;20480;-66
2024/01/22 05:11:23;;;;;;;664.90;634.30;;;9.00;99.90;;;;;;5032564;28;20965;-66
2024/01/22 05:13:51;;;;;;;667.80;637.87;;;9.00;99.90;;;;;;5032762;28;20832;-67
2024/01/22 05:16:20;;;;;;;677.00;645.67;;;9.10;99.90;;;;;;5032738;28;20542;-66
2024/01/22 05:18:48;;;;;;;692.80;659.53;;;9.20;99.90;;;;;;5031466;28;20827;-66
2024/01/22 05:21:15;;;;;;;669.13;639.40;;;9.30;99.90;;;;;;5025704;28;20452;-66
2024/01/22 05:23:42;;;;;;;655.03;627.73;;;9.40;99.90;;;;;;5015999;28;20480;-66
2024/01/22 05:26:09;;;;;;;648.73;622.20;;;9.30;99.90;;;;;;5028630;28;20464;-67
2024/01/22 05:28:36;;;;;;;669.63;641.00;;;9.30;99.90;;;;;;5028320;28;20479;-66
2024/01/22 05:31:04;;;;;;;645.77;619.53;;;9.40;99.90;;;;;;5032301;28;20506;-66
2024/01/22 05:33:32;;;;;;;625.53;600.93;;;9.50;99.90;;;;;;5025323;28;20480;-66
2024/01/22 05:35:59;;;;;;;651.23;624.00;;;9.50;99.90;;;;;;5031560;28;20463;-66
2024/01/22 05:38:26;;;;;;;635.10;609.03;;;9.50;99.90;;;;;;5023685;28;20480;-66
2024/01/22 05:40:53;;;;;;;605.53;582.40;;;9.60;99.90;;;;;;5022095;28;20895;-67
2024/01/22 05:43:20;;;;;;;580.50;559.80;;;9.80;99.90;;;;;;5025674;28;20476;-65
2024/01/22 05:45:46;;;;;;;554.20;535.00;;;9.70;99.90;;;;;;5023987;28;20456;-67
2024/01/22 05:48:13;;;;;;;460.90;446.00;;;9.90;99.90;;;;;;5027273;28;20487;-66
2024/01/22 05:50:42;;;;;;;399.53;386.67;;;9.90;99.90;;;;;;5028507;28;20465;-65
2024/01/22 05:53:08;;;;;;;397.50;385.23;;;10.00;99.90;;;;;;5031930;28;20491;-65
2024/01/22 05:55:36;;;;;;;336.13;326.13;;;10.10;99.90;;;;;;5024218;28;20455;-66
2024/01/22 05:58:03;;;;;;;290.47;281.87;;;10.00;99.90;;;;;;5020531;28;20453;-66
2024/01/22 06:00:30;;;;;;;304.83;295.70;;;10.00;99.90;;;;;;5027396;28;20509;-66
2024/01/22 06:02:59;;;;;;;249.00;241.23;;;10.10;99.90;;;;;;5015396;28;20480;-65
2024/01/22 06:05:26;;;;;;;216.83;210.20;;;10.30;99.90;;;;;;5024192;28;20961;-66
2024/01/22 06:07:54;;;;;;;137.63;132.93;;;10.30;99.90;;;;;;5032115;28;20456;-65
2024/01/22 06:10:21;;;;;;;118.37;114.43;;;10.50;99.90;;;;;;5032147;28;20459;-66
2024/01/22 06:12:48;;;;;;;100.53;97.03;;;10.50;99.90;;;;;;5032200;28;20478;-66
2024/01/22 06:15:15;;;;;;;72.63;70.07;;;10.70;99.90;;;;;;5032164;28;20873;-66
2024/01/22 06:17:42;;;;;;;55.50;53.50;;;10.80;99.90;;;;;;5032108;28;20459;-65
2024/01/22 06:20:10;;;;;;;53.30;51.27;;;10.70;99.90;;;;;;5031563;28;20452;-65
2024/01/22 06:22:36;;;;;;;40.20;38.63;;;10.70;99.90;;;;;;5031916;28;20476;-65
2024/01/22 06:25:06;;;;;;;43.20;41.53;;;10.60;99.90;;;;;;5032267;28;20448;-66
2024/01/22 06:27:33;;;;;;;45.47;43.77;;;10.70;99.90;;;;;;5024700;28;20457;-66
2024/01/22 06:30:01;;;;;;;55.53;53.40;;;10.70;99.90;;;;;;5030740;28;20488;-66
2024/01/22 06:32:28;;;;;;;57.73;55.60;;;10.90;99.90;;;;;;5031619;28;20476;-65
2024/01/22 06:34:55;;;;;;;47.23;45.10;;;10.90;99.90;;;;;;5031472;28;20452;-66
2024/01/22 06:37:24;;;;;;;43.83;42.13;;;10.90;99.90;;;;;;5031716;28;20832;-66
2024/01/22 06:39:51;;;;;;;39.47;37.87;;;11.00;99.90;;;;;;5031196;28;20463;-67
2024/01/22 06:42:19;;;;;;;47.60;45.70;;;10.90;99.90;;;;;;5031703;28;20476;-66
2024/01/22 06:44:46;;;;;;;49.40;47.40;;;10.90;99.90;;;;;;5030530;28;20452;-66
2024/01/22 06:47:13;;;;;;;41.30;39.40;;;11.00;99.90;;;;;;5024138;28;20456;-66
2024/01/22 06:49:39;;;;;;;32.80;31.33;;;11.00;99.90;;;;;;5014328;28;20555;-65
2024/01/22 06:52:06;;;;;;;23.43;22.43;;;11.00;99.90;;;;;;5019464;28;20839;-66
2024/01/22 06:54:33;;;;;;;23.70;22.20;;;11.20;99.90;;;;;;5027364;28;20460;-66
2024/01/22 06:57:00;;;;;;;20.10;19.10;;;11.10;99.90;;;;;;5027084;28;20463;-66
2024/01/22 06:59:30;;;;;;;13.60;12.90;;;11.20;99.90;;;;;;5034906;28;20962;-67
2024/01/22 07:01:58;;;;;;;9.40;8.60;;;11.30;99.90;;;;;;5034842;28;20459;-67
2024/01/22 07:04:25;;;;;;;7.97;7.37;;;11.40;99.90;;;;;;5027179;28;20517;-66
2024/01/22 07:06:52;;;;;;;7.33;6.73;;;11.40;99.90;;;;;;5016871;28;20452;-67
2024/01/22 07:09:19;;;;;;;6.53;5.93;;;11.40;99.90;;;;;;5028692;28;20484;-67
2024/01/22 07:11:46;;;;;;;7.07;6.27;;;11.40;99.90;;;;;;5026530;28;20452;-66
2024/01/22 07:14:13;;;;;;;6.00;5.50;;;11.40;99.90;;;;;;5034718;28;20452;-67
2024/01/22 07:16:41;;;;;;;4.30;3.90;;;11.50;99.90;;;;;;5026859;28;20581;-66
2024/01/22 07:19:08;;;;;;;8.13;3.20;;;11.50;99.90;;;;;;5026659;28;20452;-66
2024/01/22 07:21:35;;;;;;;6.23;3.40;;;11.50;99.90;;;;;;5034932;28;20829;-66
2024/01/22 07:24:02;;;;;;;5.93;3.20;;;11.50;99.90;;;;;;5026602;28;20468;-69
2024/01/22 07:26:29;;;;;;;4.73;3.20;;;11.50;99.90;;;;;;5034288;28;20456;-66
2024/01/22 07:28:55;;;;;;;5.20;3.10;;;11.50;99.90;;;;;;5034163;28;21003;-67
2024/01/22 07:31:22;;;;;;;6.37;3.20;;;11.50;99.90;;;;;;5026632;28;20462;-66
2024/01/22 07:33:50;;;;;;;4.07;3.33;;;11.50;99.90;;;;;;5026708;28;20471;-66
2024/01/22 07:36:17;;;;;;;6.07;5.60;;;11.70;99.90;;;;;;5034757;28;20466;-66
2024/01/22 07:38:45;;;;;;;16.33;15.43;;;11.60;99.90;;;;;;5034352;28;20970;-66
2024/01/22 07:41:12;;;;;;;40.87;39.27;;;11.40;99.90;;;;;;5034148;28;20544;-65
2024/01/22 07:43:38;;;;;;;51.47;49.57;;;11.10;99.90;;;;;;5026177;28;20509;-65
2024/01/22 07:46:05;;;;;;;45.93;44.17;;;11.00;99.90;;;;;;5034239;28;20463;-66
2024/01/22 07:48:32;;;;;;;51.47;49.57;;;10.90;99.90;;;;;;5026818;28;20464;-66
2024/01/22 07:51:00;;;;;;;58.23;56.07;;;10.90;99.90;;;;;;5033423;28;20452;-66
2024/01/22 07:53:27;;;;;;;68.77;66.27;;;10.80;99.90;;;;;;5034251;28;21014;-66
2024/01/22 07:55:54;;;;;;;82.77;79.90;;;10.70;99.90;;;;;;5032230;28;20459;-66
2024/01/22 07:58:22;;;;;;;105.97;102.40;;;10.60;99.90;;;;;;5028051;28;20460;-67
2024/01/22 08:00:48;;;;;;;129.20;124.77;;;10.60;99.90;;;;;;5025906;28;20968;-66
2024/01/22 08:03:15;;;;;;;139.87;134.97;;;10.60;99.90;;;;;;5029688;28;20473;-66
2024/01/22 08:05:42;;;;;;;140.47;135.47;;;10.60;99.90;;;;;;5014153;28;20449;-67
2024/01/22 08:08:10;;;;;;;151.57;146.30;;;10.60;99.90;;;;;;5018197;28;20538;-66
2024/01/22 08:10:38;;;;;;;185.17;178.37;;;10.60;99.90;;;;;;5025493;28;20487;-66
2024/01/22 08:13:05;;;;;;;179.87;173.27;;;10.60;99.90;;;;;;5033973;28;20521;-66
2024/01/22 08:15:32;;;;;;;167.60;161.57;;;10.60;99.90;;;;;;5034001;28;20459;-66
2024/01/22 08:17:59;;;;;;;159.90;154.17;;;10.60;99.90;;;;;;5030684;28;20460;-66
2024/01/22 08:20:26;;;;;;;160.17;154.47;;;10.50;99.90;;;;;;5018651;28;20448;-66
2024/01/22 08:22:53;;;;;;;150.83;145.53;;;10.60;99.90;;;;;;5032711;28;20482;-67
2024/01/22 08:25:27;;;;;;;129.13;124.77;;;10.70;99.90;;;;;;5027916;28;20449;-67
2024/01/22 08:27:54;;;;;;;107.20;103.60;;;10.70;99.90;;;;;;5031454;28;20837;-67
2024/01/22 08:30:21;;;;;;;78.90;76.10;;;10.80;99.90;;;;;;5027375;28;20489;-66
2024/01/22 08:32:48;;;;;;;52.97;50.97;;;10.90;99.90;;;;;;5030733;28;20479;-65
2024/01/22 08:35:16;;;;;;;44.07;42.37;;;10.90;99.90;;;;;;5033314;28;20452;-66
2024/01/22 08:37:47;;;;;;;40.37;38.77;;;11.00;99.90;;;;;;5032348;28;20456;-67
2024/01/22 08:40:17;;;;;;;40.57;38.87;;;11.00;99.90;;;;;;5026054;28;20452;-66
2024/01/22 08:42:46;;;;;;;41.93;40.33;;;10.90;99.90;;;;;;5032580;28;20507;-66
2024/01/22 08:45:13;;;;;;;36.07;34.37;;;10.90;99.90;;;;;;5033149;28;20927;-66
2024/01/22 08:47:40;;;;;;;27.60;26.40;;;11.00;99.90;;;;;;5016364;28;20532;-66
2024/01/22 08:50:08;;;;;;;28.77;27.37;;;11.10;99.90;;;;;;5024119;28;20480;-66
2024/01/22 08:52:35;;;;;;;21.70;20.70;;;11.20;99.90;;;;;;5024964;28;20996;-65
2024/01/22 08:55:05;;;;;;;16.20;15.20;;;11.30;99.90;;;;;;5024608;28;20460;-66
2024/01/22 08:57:32;;;;;;;11.60;10.77;;;11.30;99.90;;;;;;5025531;28;21018;-66
2024/01/22 09:00:00;;;;;;;9.60;8.97;;;11.40;99.90;;;;;;5020590;28;20453;-66
2024/01/22 09:02:27;;;;;;;7.73;6.93;;;11.50;99.90;;;;;;5020398;28;20477;-66
2024/01/22 09:04:54;;;;;;;7.83;4.40;;;11.70;99.90;;;;;;5031335;28;20464;-68
2024/01/22 09:07:20;;;;;;;6.37;3.70;;;11.80;99.90;;;;;;5032602;28;20523;-67
2024/01/22 09:09:47;;;;;;;5.57;2.63;;;11.90;99.90;;;;;;5032047;28;20546;-66
2024/01/22 09:12:14;;;;;;;5.93;2.33;;;12.00;99.90;;;;;;5032126;28;20555;-65
2024/01/22 09:14:41;;;;;;;6.23;2.30;;;12.10;99.90;;;;;;5032099;28;20510;-67
2024/01/22 09:17:09;;;;;;;8.30;3.23;;;12.10;99.90;;;;;;5032095;28;20495;-65
2024/01/22 09:19:36;;;;;;;5.00;1.93;;;12.20;99.90;;;;;;5015534;28;20441;-67
2024/01/22 09:22:02;;;;;;;8.35;2.13;;;12.40;99.90;;;;;;5012204;28;20563;-67
2024/01/22 09:24:29;;;;;;;6.43;2.20;;;12.20;99.90;;;;;;5021402;28;20229;-67
2024/01/22 09:26:56;;;;;;;7.00;2.13;;;12.30;99.90;;;;;;5031457;28;20452;-66
2024/01/22 09:29:23;;;;;;;7.30;2.77;;;12.40;99.90;;;;;;5026335;28;20484;-66
2024/01/22 09:31:50;;;;;;;7.93;2.03;;;12.40;99.90;;;;;;5028719;28;20560;-66
2024/01/22 09:34:18;;;;;;;7.80;2.80;;;12.40;99.90;;;;;;5026058;28;20520;-64
2024/01/22 09:36:44;;;;;;;7.60;2.10;;;12.40;99.90;;;;;;5032725;28;20559;-66
2024/01/22 09:39:11;;;;;;;9.40;2.57;;;12.40;99.90;;;;;;5028273;28;20460;-66
2024/01/22 09:41:40;;;;;;;6.13;1.93;;;12.50;99.90;;;;;;5020941;28;20459;-67
2024/01/22 09:44:08;;;;;;;7.97;2.30;;;12.60;99.90;;;;;;5013111;28;20496;-67
2024/01/22 09:46:36;;;;;;;7.43;2.40;;;12.60;99.90;;;;;;5028373;28;20964;-67
2024/01/22 09:49:03;;;;;;;8.40;1.93;;;12.70;99.90;;;;;;5032279;28;20983;-66
2024/01/22 09:51:33;;;;;;;15.23;2.57;;;12.60;99.90;;;;;;5032539;28;20494;-66
2024/01/22 09:54:06;;;;;;;9.43;2.50;;;12.60;99.90;;;;;;5024527;28;20578;-66
2024/01/22 09:56:35;;;;;;;9.13;2.40;;;12.60;99.90;;;;;;5032619;28;20892;-66
2024/01/22 09:59:11;;;;;;;9.13;2.60;;;12.60;99.90;;;;;;5029190;28;20449;-66
2024/01/22 10:01:39;;;;;;;7.50;1.97;;;12.70;99.90;;;;;;5020770;28;20460;-67
2024/01/22 10:04:06;;;;;;;8.07;2.40;;;12.70;99.90;;;;;;5024264;28;20855;-66
2024/01/22 10:06:36;;;;;;;7.17;1.90;;;12.70;99.90;;;;;;5024102;28;20448;-67
2024/01/22 10:09:03;;;;;;;9.03;2.00;;;12.80;99.90;;;;;;5028790;28;20486;-65
2024/01/22 10:11:31;;;;;;;6.47;2.13;;;12.80;99.90;;;;;;5020731;28;20497;-66
2024/01/22 10:13:58;;;;;;;7.60;1.93;;;12.90;99.90;;;;;;5031299;28;20476;-66
2024/01/22 10:16:25;;;;;;;6.53;2.00;;;12.90;99.90;;;;;;5023839;28;20552;-66
2024/01/22 10:19:00;;;;;;;8.10;1.70;;;12.90;99.90;;;;;;5023503;28;20474;-66
2024/01/22 10:21:27;;;;;;;6.13;1.87;;;12.80;99.90;;;;;;5023739;28;20519;-66
2024/01/22 10:23:59;;;;;;;11.60;1.83;;;12.80;99.90;;;;;;5023345;28;20479;-67
2024/01/22 10:26:26;;;;;;;6.57;2.87;;;12.80;99.90;;;;;;5025456;28;20957;-66
2024/01/22 10:28:53;;;;;;;9.10;1.90;;;12.90;99.90;;;;;;5020103;28;20459;-66
2024/01/22 10:31:20;;;;;;;5.80;2.03;;;12.90;99.90;;;;;;5029733;28;20859;-66
2024/01/22 10:33:48;;;;;;;4.07;1.30;;;12.90;99.90;;;;;;5027834;28;20476;-66
2024/01/22 10:36:16;;;;;;;11.80;2.00;;;12.90;99.90;;;;;;5035834;28;20456;-66
2024/01/22 10:38:44;;;;;;;5.50;1.93;;;12.90;99.90;;;;;;5027588;28;20453;-67
2024/01/22 10:41:18;;;;;;;11.10;2.70;;;13.00;99.90;;;;;;5023522;28;20448;-67
2024/01/22 10:43:46;;;;;;;4.60;1.77;;;13.00;99.90;;;;;;5023754;28;20992;-67
2024/01/22 10:46:13;;;;;;;9.03;1.80;;;13.00;99.90;;;;;;5028657;28;20837;-67
2024/01/22 10:48:41;;;;;;;4.27;1.40;;;13.00;99.90;;;;;;5035153;28;20456;-65
2024/01/22 10:51:09;;;;;;;8.63;2.00;;;13.10;99.90;;;;;;5035414;28;20490;-66
2024/01/22 10:53:37;;;;;;;4.90;1.47;;;12.90;99.90;;;;;;5035354;28;20494;-67
2024/01/22 10:56:09;;;;;;;4.00;1.10;;;12.90;99.90;;;;;;5032221;28;20531;-67
2024/01/22 10:58:42;;;;;;;4.67;1.10;;;12.80;99.90;;;;;;5023031;28;20899;-67
2024/01/22 11:01:15;;;;;;;5.87;1.67;;;12.80;99.90;;;;;;5035309;28;20506;-67
2024/01/22 11:03:47;;;;;;;4.93;1.57;;;12.70;99.90;;;;;;5033805;28;20906;-67
2024/01/22 11:06:19;;;;;;;3.90;1.17;;;12.70;99.90;;;;;;5030803;28;20448;-67
2024/01/22 11:08:50;;;;;;;6.35;1.40;;;12.70;99.90;;;;;;5022502;28;20885;-66
2024/01/22 11:11:20;;;;;;;5.60;1.30;;;12.80;99.90;;;;;;5014083;28;21096;-66
2024/01/22 11:13:51;;;;;;;5.07;1.87;;;12.80;99.90;;;;;;5015048;28;20218;-67
2024/01/22 11:16:18;;;;;;;6.40;1.60;;;12.70;99.90;;;;;;5015734;28;20449;-66
2024/01/22 11:18:58;;;;;;;6.17;1.37;;;12.70;99.90;;;;;;5015048;28;20449;-67
2024/01/22 11:21:32;;;;;;;6.73;2.50;;;12.70;99.90;;;;;;5013831;28;20448;-67
2024/01/22 11:24:16;;;;;;;4.07;1.30;;;12.70;99.90;;;;;;5022860;28;20481;-67
2024/01/22 11:26:44;;;;;;;4.03;1.30;;;12.70;99.90;;;;;;5014785;28;20806;-67
2024/01/22 11:29:15;;;;;;;7.53;1.67;;;12.60;99.90;;;;;;5014269;28;20841;-67
2024/01/22 11:31:42;;;;;;;4.10;1.30;;;12.60;99.90;;;;;;5014057;28;20832;-65
2024/01/22 11:34:09;;;;;;;5.00;1.40;;;12.60;99.90;;;;;;5014144;28;20994;-66
2024/01/22 11:36:55;;;;;;;5.83;1.80;;;12.60;99.90;;;;;;5014081;28;20453;-67
2024/01/22 11:39:46;;;;;;;3.50;1.20;;;12.50;99.90;;;;;;5008171;28;20453;-67
2024/01/22 11:42:28;;;;;;;4.50;1.40;;;12.50;99.90;;;;;;5006892;28;20483;-67
2024/01/22 11:45:00;;;;;;;6.40;1.40;;;12.40;99.90;;;;;;5014756;28;20448;-66
2024/01/22 11:47:28;;;;;;;5.80;2.00;;;12.40;99.90;;;;;;5015016;28;20855;-67
2024/01/22 11:50:02;;;;;;;4.93;1.50;;;12.40;99.90;;;;;;5014441;28;20444;-67
2024/01/22 11:52:29;;;;;;;5.00;1.93;;;12.50;99.90;;;;;;5021384;28;20470;-68
2024/01/22 11:54:58;;;;;;;6.13;2.07;;;12.40;99.90;;;;;;5015817;28;20471;-68
2024/01/22 11:57:26;;;;;;;5.90;2.10;;;12.40;99.90;;;;;;5014214;28;20449;-69
2024/01/22 12:00:06;;;;;;;5.00;1.60;;;12.30;99.90;;;;;;5014101;28;20444;-69
2024/01/22 12:02:34;;;;;;;6.63;1.70;;;12.30;99.90;;;;;;5014259;28;20472;-69
2024/01/22 12:05:06;;;;;;;4.40;1.63;;;12.10;99.90;;;;;;5014467;28;20452;-67
2024/01/22 12:07:33;;;;;;;5.07;1.77;;;12.00;99.90;;;;;;5014511;28;20453;-69
2024/01/22 12:10:00;;;;;;;5.73;1.70;;;11.90;99.90;;;;;;5013900;28;20544;-65
2024/01/22 12:12:27;;;;;;;7.07;2.00;;;11.80;99.90;;;;;;5014562;28;20483;-67
2024/01/22 12:14:58;;;;;;;6.43;2.77;;;12.00;99.90;;;;;;5014696;28;20531;-67
2024/01/22 12:17:26;;;;;;;5.40;1.83;;;11.90;99.90;;;;;;5014171;28;20491;-67
2024/01/22 12:19:57;;;;;;;6.53;2.00;;;11.90;99.90;;;;;;5014137;28;20449;-67
2024/01/22 12:22:25;;;;;;;10.47;2.33;;;11.90;99.90;;;;;;5013962;28;21007;-67
2024/01/22 12:25:06;;;;;;;5.97;2.03;;;12.00;99.90;;;;;;5013498;28;20884;-67
2024/01/22 12:27:34;;;;;;;8.53;3.53;;;12.40;99.90;;;;;;5013951;28;20467;-67
2024/01/22 12:30:02;;;;;;;10.73;2.60;;;12.90;99.90;;;;;;5013595;28;20461;-67
2024/01/22 12:32:30;;;;;;;11.33;2.50;;;13.30;99.90;;;;;;5014080;28;20468;-67
2024/01/22 12:34:57;;;;;;;16.03;2.60;;;13.50;99.90;;;;;;5013614;28;20492;-67
2024/01/22 12:37:28;;;;;;;7.13;1.37;;;13.40;99.90;;;;;;5014080;28;20445;-67